Time;durP1;ratioP1;P1;durP2;ratioP2;P2;SDS_P1;SDS_P2;PMS_P1;PMS_P2;Temp;Humidity;BMP_temperature;BMP_pressure;BME280_temperature;BME280_humidity;BME280_pressure;Samples;Min_cycle;Max_cycle;Signal;HPM_P1;HPM_P2
2022/07/16 00:03:33;;;;;;;3.90;2.40;;;;;;;;;;5004909;28;20185;-87
2022/07/16 00:06:37;;;;;;;2.93;2.30;;;;;;;;;;4994114;28;20213;-87
2022/07/16 00:09:41;;;;;;;7.17;2.40;;;;;;;;;;4994128;28;20181;-87
2022/07/16 00:12:45;;;;;;;6.70;2.60;;;;;;;;;;4983350;28;20185;-87
2022/07/16 00:15:49;;;;;;;5.10;2.13;;;;;;;;;;4994232;28;20237;-87
2022/07/16 00:22:16;;;;;;;5.23;2.60;;;;;;;;;;5005178;28;20182;-87
2022/07/16 00:25:20;;;;;;;5.63;2.60;;;;;;;;;;4983069;28;20173;-88
2022/07/16 00:28:24;;;;;;;2.90;2.20;;;;;;;;;;4993815;28;20632;-87
2022/07/16 00:31:28;;;;;;;3.20;2.03;;;;;;;;;;4982843;28;20197;-87
2022/07/16 00:34:33;;;;;;;2.20;2.00;;;;;;;;;;4993806;28;20564;-87
2022/07/16 00:37:37;;;;;;;3.50;2.23;;;;;;;;;;4994993;28;20209;-88
2022/07/16 00:40:41;;;;;;;2.80;2.30;;;;;;;;;;4985537;28;20181;-88
2022/07/16 00:43:51;;;;;;;3.53;2.43;;;;;;;;;;4996109;28;20178;-87
2022/07/16 00:46:55;;;;;;;4.03;2.27;;;;;;;;;;4996134;28;20221;-87
2022/07/16 00:49:59;;;;;;;2.70;2.00;;;;;;;;;;4986730;28;20186;-88
2022/07/16 00:53:07;;;;;;;3.63;2.23;;;;;;;;;;5012427;28;20174;-87
2022/07/16 00:56:13;;;;;;;4.63;2.60;;;;;;;;;;5024067;28;20676;-87
2022/07/16 00:59:17;;;;;;;2.63;1.90;;;;;;;;;;5001453;28;20186;-87
2022/07/16 01:02:21;;;;;;;2.83;1.90;;;;;;;;;;5011531;28;20181;-87
2022/07/16 01:05:26;;;;;;;3.83;2.37;;;;;;;;;;5021141;28;20178;-87
2022/07/16 01:08:33;;;;;;;4.77;2.20;;;;;;;;;;5020066;28;20185;-88
2022/07/16 01:11:37;;;;;;;3.87;2.07;;;;;;;;;;4985535;28;20177;-87
2022/07/16 01:14:42;;;;;;;3.97;2.27;;;;;;;;;;5006968;28;20213;-87
2022/07/16 01:17:46;;;;;;;4.73;2.50;;;;;;;;;;5006608;28;20213;-87
2022/07/16 01:20:50;;;;;;;3.17;2.10;;;;;;;;;;4995099;28;20177;-87
2022/07/16 01:23:55;;;;;;;4.03;2.77;;;;;;;;;;4994369;28;20181;-87
2022/07/16 01:26:59;;;;;;;4.20;2.47;;;;;;;;;;4993696;28;20217;-87
2022/07/16 01:30:08;;;;;;;4.50;2.47;;;;;;;;;;5004555;28;20177;-87
2022/07/16 01:33:28;;;;;;;2.90;2.27;;;;;;;;;;5004615;28;20522;-88
2022/07/16 01:36:32;;;;;;;3.60;2.47;;;;;;;;;;5015620;28;20688;-87
2022/07/16 01:39:40;;;;;;;5.60;2.53;;;;;;;;;;4993020;28;20525;-87
2022/07/16 01:42:44;;;;;;;4.83;2.43;;;;;;;;;;5004420;28;20178;-88
2022/07/16 01:45:49;;;;;;;8.37;2.57;;;;;;;;;;5003833;28;20197;-88
2022/07/16 01:48:53;;;;;;;2.50;2.17;;;;;;;;;;5004609;28;20197;-87
2022/07/16 01:51:57;;;;;;;5.43;2.70;;;;;;;;;;5015957;28;20514;-87
2022/07/16 01:55:01;;;;;;;3.07;2.30;;;;;;;;;;4993225;28;20668;-87
2022/07/16 01:58:07;;;;;;;3.70;2.20;;;;;;;;;;4992547;28;20216;-87
2022/07/16 02:01:11;;;;;;;3.77;2.57;;;;;;;;;;4992946;28;20620;-87
2022/07/16 02:04:16;;;;;;;7.33;2.73;;;;;;;;;;5015574;28;20182;-87
2022/07/16 02:07:20;;;;;;;8.27;3.03;;;;;;;;;;5015163;28;20217;-87
2022/07/16 02:10:24;;;;;;;10.00;2.43;;;;;;;;;;5003897;28;20181;-87
2022/07/16 02:13:28;;;;;;;4.33;2.80;;;;;;;;;;4992391;28;20185;-87
2022/07/16 02:16:32;;;;;;;6.50;3.13;;;;;;;;;;5003966;28;20213;-87
2022/07/16 02:19:36;;;;;;;4.43;2.83;;;;;;;;;;5003647;28;20197;-87
2022/07/16 02:22:40;;;;;;;4.67;2.50;;;;;;;;;;5002989;28;20192;-87
2022/07/16 02:25:45;;;;;;;4.50;2.70;;;;;;;;;;5002929;28;20193;-87
2022/07/16 02:28:49;;;;;;;8.20;3.13;;;;;;;;;;5003916;28;20181;-87
2022/07/16 02:31:53;;;;;;;5.73;2.90;;;;;;;;;;5003165;28;20177;-87
2022/07/16 02:34:57;;;;;;;3.27;2.80;;;;;;;;;;5002971;28;20202;-87
2022/07/16 02:38:02;;;;;;;4.27;2.97;;;;;;;;;;5003081;28;20225;-87
2022/07/16 02:41:06;;;;;;;5.13;2.63;;;;;;;;;;5003147;28;20525;-87
2022/07/16 02:44:10;;;;;;;5.57;2.77;;;;;;;;;;5002874;28;20182;-87
2022/07/16 02:47:15;;;;;;;5.60;2.97;;;;;;;;;;5068996;22;20230;-85
2022/07/16 02:50:19;;;;;;;3.93;2.73;;;;;;;;;;5063951;28;20506;-85
2022/07/16 02:53:23;;;;;;;4.43;2.90;;;;;;;;;;5062897;28;20186;-85
2022/07/16 02:56:28;;;;;;;4.83;2.90;;;;;;;;;;5074904;28;20186;-85
2022/07/16 02:59:33;;;;;;;4.43;2.83;;;;;;;;;;5054101;28;20200;-85
2022/07/16 03:02:38;;;;;;;3.97;2.73;;;;;;;;;;5052291;28;20640;-85
2022/07/16 03:05:42;;;;;;;4.00;3.00;;;;;;;;;;5033561;28;20208;-85
2022/07/16 03:08:46;;;;;;;6.20;3.20;;;;;;;;;;5084885;28;20178;-85
2022/07/16 03:11:50;;;;;;;3.30;2.87;;;;;;;;;;5086377;28;20178;-85
2022/07/16 03:14:54;;;;;;;5.27;2.80;;;;;;;;;;5073334;28;20179;-85
2022/07/16 03:17:59;;;;;;;4.93;3.20;;;;;;;;;;5065424;28;20700;-85
2022/07/16 03:21:03;;;;;;;5.70;3.37;;;;;;;;;;5075414;28;20170;-85
2022/07/16 03:24:07;;;;;;;8.73;3.50;;;;;;;;;;5075475;28;20171;-86
2022/07/16 03:27:12;;;;;;;8.17;2.63;;;;;;;;;;5075710;28;20206;-85
2022/07/16 03:30:17;;;;;;;4.37;3.00;;;;;;;;;;5074794;28;20190;-85
2022/07/16 03:33:21;;;;;;;6.67;3.10;;;;;;;;;;5058663;28;20191;-85
2022/07/16 03:36:26;;;;;;;8.10;2.97;;;;;;;;;;5055233;28;20527;-85
2022/07/16 03:39:30;;;;;;;3.50;3.20;;;;;;;;;;5058122;28;20179;-85
2022/07/16 03:42:35;;;;;;;5.23;3.17;;;;;;;;;;5039285;28;20180;-85
2022/07/16 03:45:39;;;;;;;5.23;3.10;;;;;;;;;;5050364;28;20212;-85
2022/07/16 03:48:43;;;;;;;3.03;2.73;;;;;;;;;;5049226;28;20200;-85
2022/07/16 03:51:47;;;;;;;5.30;2.90;;;;;;;;;;5038195;28;20180;-85
2022/07/16 03:54:51;;;;;;;5.97;3.63;;;;;;;;;;5049619;28;20195;-86
2022/07/16 03:57:55;;;;;;;6.53;2.90;;;;;;;;;;5037476;28;20212;-85
2022/07/16 04:00:59;;;;;;;4.90;3.23;;;;;;;;;;5033842;28;20770;-83
2022/07/16 04:04:03;;;;;;;12.57;3.67;;;;;;;;;;5045290;28;20626;-83
2022/07/16 04:07:07;;;;;;;3.40;2.90;;;;;;;;;;5056593;28;20212;-84
2022/07/16 04:10:11;;;;;;;4.70;2.87;;;;;;;;;;5033808;28;20192;-84
2022/07/16 04:13:15;;;;;;;6.17;3.20;;;;;;;;;;5033757;28;20176;-83
2022/07/16 04:16:20;;;;;;;6.00;3.23;;;;;;;;;;5045119;28;20176;-84
2022/07/16 04:19:24;;;;;;;4.10;3.10;;;;;;;;;;5045373;28;20196;-85
2022/07/16 04:22:28;;;;;;;5.90;3.10;;;;;;;;;;5033846;28;20195;-88
2022/07/16 04:25:32;;;;;;;5.73;3.10;;;;;;;;;;5044079;28;20232;-88
2022/07/16 04:28:36;;;;;;;3.37;3.07;;;;;;;;;;5051160;28;20214;-88
2022/07/16 04:31:40;;;;;;;5.40;3.30;;;;;;;;;;5072878;28;20685;-88
2022/07/16 04:34:44;;;;;;;8.43;2.80;;;;;;;;;;5044210;28;20176;-88
2022/07/16 04:37:48;;;;;;;5.47;3.23;;;;;;;;;;5066392;28;20219;-88
2022/07/16 04:40:52;;;;;;;2.93;2.63;;;;;;;;;;5072483;28;20179;-87
2022/07/16 04:43:57;;;;;;;5.03;2.90;;;;;;;;;;5083955;28;20637;-88
2022/07/16 04:47:01;;;;;;;5.37;2.93;;;;;;;;;;5073100;28;20230;-86
2022/07/16 04:50:06;;;;;;;3.17;2.73;;;;;;;;;;5033833;28;20180;-85
2022/07/16 04:53:10;;;;;;;6.93;2.73;;;;;;;;;;5043106;28;20195;-86
2022/07/16 04:56:15;;;;;;;7.13;2.93;;;;;;;;;;5054231;28;20183;-85
2022/07/16 04:59:19;;;;;;;4.70;2.93;;;;;;;;;;5053722;28;20175;-85
2022/07/16 05:05:46;;;;;;;2.93;2.63;;;;;;;;;;5084860;28;20206;-85
2022/07/16 05:08:50;;;;;;;3.80;2.50;;;;;;;;;;5073476;28;20625;-85
2022/07/16 05:11:54;;;;;;;2.93;2.60;;;;;;;;;;5059028;28;20188;-84
2022/07/16 05:14:58;;;;;;;3.60;3.23;;;;;;;;;;5054411;28;20669;-85
2022/07/16 05:18:03;;;;;;;4.70;2.57;;;;;;;;;;5073905;28;20218;-85
2022/07/16 05:21:07;;;;;;;4.33;2.63;;;;;;;;;;5051573;28;20183;-85
2022/07/16 05:24:12;;;;;;;4.30;2.63;;;;;;;;;;5072330;28;20206;-84
2022/07/16 05:27:16;;;;;;;2.60;2.40;;;;;;;;;;5074470;28;20590;-85
2022/07/16 05:30:20;;;;;;;3.50;2.40;;;;;;;;;;5063843;28;20183;-86
2022/07/16 05:33:25;;;;;;;4.77;2.50;;;;;;;;;;5066036;28;20202;-84
2022/07/16 05:36:29;;;;;;;4.67;2.47;;;;;;;;;;5072689;28;20190;-86
2022/07/16 05:39:33;;;;;;;4.30;2.73;;;;;;;;;;5069820;28;20642;-84
2022/07/16 05:42:38;;;;;;;3.67;2.60;;;;;;;;;;5054189;28;20191;-84
2022/07/16 05:45:41;;;;;;;4.40;2.60;;;;;;;;;;5054251;28;20219;-83
2022/07/16 05:48:46;;;;;;;4.63;2.70;;;;;;;;;;5054337;28;20175;-84
2022/07/16 05:51:50;;;;;;;5.30;2.67;;;;;;;;;;5058955;28;20187;-84
2022/07/16 05:54:54;;;;;;;6.53;2.53;;;;;;;;;;5054795;28;20180;-84
2022/07/16 05:57:58;;;;;;;3.80;2.83;;;;;;;;;;5034836;28;20706;-84
2022/07/16 06:01:02;;;;;;;5.47;3.00;;;;;;;;;;5065421;28;20199;-84
2022/07/16 06:04:06;;;;;;;5.47;2.80;;;;;;;;;;5053907;28;20180;-84
2022/07/16 06:07:11;;;;;;;5.60;2.77;;;;;;;;;;5081626;28;20223;-85
2022/07/16 06:10:15;;;;;;;6.90;3.20;;;;;;;;;;5060395;28;20191;-85
2022/07/16 06:13:19;;;;;;;4.67;2.80;;;;;;;;;;5053768;28;20171;-84
2022/07/16 06:16:23;;;;;;;7.27;3.00;;;;;;;;;;5074943;28;20187;-84
2022/07/16 06:19:28;;;;;;;4.13;3.20;;;;;;;;;;5069417;28;20198;-85
2022/07/16 06:22:33;;;;;;;3.37;2.70;;;;;;;;;;5073693;28;20201;-86
2022/07/16 06:25:38;;;;;;;4.33;2.90;;;;;;;;;;5081336;28;20551;-84
2022/07/16 06:28:42;;;;;;;5.03;2.80;;;;;;;;;;5065261;28;20207;-84
2022/07/16 06:31:46;;;;;;;4.90;2.73;;;;;;;;;;5045169;28;20176;-84
2022/07/16 06:34:50;;;;;;;7.03;2.53;;;;;;;;;;5044891;28;20180;-85
2022/07/16 06:37:55;;;;;;;4.63;2.50;;;;;;;;;;5044809;28;20216;-84
2022/07/16 06:40:59;;;;;;;5.23;2.60;;;;;;;;;;5092575;28;20191;-85
2022/07/16 06:44:07;;;;;;;8.97;2.80;;;;;;;;;;5073330;28;20190;-84
2022/07/16 06:47:11;;;;;;;4.83;2.80;;;;;;;;;;5084578;28;20230;-84
2022/07/16 06:50:15;;;;;;;5.27;2.47;;;;;;;;;;5071999;28;20657;-84
2022/07/16 06:53:20;;;;;;;5.00;2.27;;;;;;;;;;5053090;28;20176;-84
2022/07/16 06:56:24;;;;;;;3.47;2.30;;;;;;;;;;5052939;28;20527;-85
2022/07/16 06:59:28;;;;;;;3.67;2.27;;;;;;;;;;5068784;28;20190;-85
2022/07/16 07:02:33;;;;;;;3.53;2.67;;;;;;;;;;5084732;28;20183;-86
2022/07/16 07:05:38;;;;;;;7.33;2.83;;;;;;;;;;5072660;28;20203;-87
2022/07/16 07:08:43;;;;;;;5.30;2.23;;;;;;;;;;5083699;28;20215;-84
2022/07/16 07:11:48;;;;;;;4.30;2.30;;;;;;;;;;5069787;28;20216;-86
2022/07/16 07:14:52;;;;;;;6.87;2.30;;;;;;;;;;5053140;28;20183;-87
2022/07/16 07:17:56;;;;;;;4.67;2.10;;;;;;;;;;5053243;28;20215;-86
2022/07/16 07:21:00;;;;;;;5.90;2.27;;;;;;;;;;5063695;28;20195;-87
2022/07/16 07:24:05;;;;;;;5.60;2.33;;;;;;;;;;5075553;28;20191;-87
2022/07/16 07:27:09;;;;;;;3.77;2.10;;;;;;;;;;5072671;28;20226;-86
2022/07/16 07:30:14;;;;;;;3.13;2.20;;;;;;;;;;5084174;28;20182;-86
2022/07/16 07:33:18;;;;;;;2.80;1.90;;;;;;;;;;5061818;28;20538;-85
2022/07/16 07:36:22;;;;;;;2.80;2.20;;;;;;;;;;5095285;28;20179;-84
2022/07/16 07:39:26;;;;;;;9.10;1.93;;;;;;;;;;5072994;28;20175;-84
2022/07/16 07:42:31;;;;;;;3.10;2.00;;;;;;;;;;5072971;28;20198;-84
2022/07/16 07:45:35;;;;;;;5.70;2.17;;;;;;;;;;5062102;28;20171;-84
2022/07/16 07:48:39;;;;;;;6.20;2.10;;;;;;;;;;5071518;28;20214;-84
2022/07/16 07:51:43;;;;;;;12.43;2.50;;;;;;;;;;5072108;28;20179;-84
2022/07/16 07:54:47;;;;;;;3.73;1.77;;;;;;;;;;5072193;28;20619;-84
2022/07/16 07:57:51;;;;;;;5.60;1.67;;;;;;;;;;5072236;28;20207;-84
2022/07/16 08:00:55;;;;;;;2.80;1.60;;;;;;;;;;5045417;28;20189;-84
2022/07/16 08:03:59;;;;;;;4.53;1.60;;;;;;;;;;5032263;28;20183;-85
2022/07/16 08:07:04;;;;;;;3.03;1.80;;;;;;;;;;5043838;28;20701;-84
2022/07/16 08:10:08;;;;;;;5.30;1.80;;;;;;;;;;5072603;28;20197;-84
2022/07/16 08:13:12;;;;;;;2.90;1.70;;;;;;;;;;5072169;28;20178;-85
2022/07/16 08:16:16;;;;;;;3.05;1.77;;;;;;;;;;5067062;28;20183;-84
2022/07/16 08:19:20;;;;;;;2.95;1.60;;;;;;;;;;5078968;28;20542;-84
2022/07/16 08:22:25;;;;;;;3.38;1.70;;;;;;;;;;5060078;28;20185;-84
2022/07/16 08:25:44;;;;;;;3.45;1.85;;;;;;;;;;5063751;28;20177;-85
2022/07/16 08:28:48;;;;;;;3.13;1.40;;;;;;;;;;5098804;28;20179;-84
2022/07/16 08:31:52;;;;;;;1.98;1.35;;;;;;;;;;5062670;28;20196;-84
2022/07/16 08:34:56;;;;;;;3.53;1.60;;;;;;;;;;5061636;28;20178;-90
2022/07/16 08:38:00;;;;;;;6.78;1.70;;;;;;;;;;5061370;28;20543;-90
2022/07/16 08:41:05;;;;;;;3.50;1.60;;;;;;;;;;5073244;28;20190;-89
2022/07/16 08:44:11;;;;;;;3.22;1.60;;;;;;;;;;5072765;28;20184;-88
2022/07/16 08:47:15;;;;;;;3.25;1.60;;;;;;;;;;5072997;28;20235;-90
2022/07/16 08:50:19;;;;;;;2.78;1.35;;;;;;;;;;5069086;22;20701;-77
2022/07/16 08:53:24;;;;;;;4.82;1.67;;;;;;;;;;5037153;28;20514;-78
2022/07/16 08:56:29;;;;;;;5.40;1.58;;;;;;;;;;5037303;28;20217;-77
2022/07/16 08:59:33;;;;;;;4.13;1.58;;;;;;;;;;5024168;28;20192;-77
2022/07/16 09:02:37;;;;;;;1.60;1.23;;;;;;;;;;5051147;28;20563;-80
2022/07/16 09:05:42;;;;;;;6.00;2.28;;;;;;;;;;5044464;28;20180;-77
2022/07/16 09:08:46;;;;;;;2.67;1.27;;;;;;;;;;5057248;28;20615;-77
2022/07/16 09:11:50;;;;;;;4.93;1.60;;;;;;;;;;5023032;28;20218;-78
2022/07/16 09:14:55;;;;;;;1.65;1.50;;;;;;;;;;5057602;28;20199;-78
2022/07/16 09:18:06;;;;;;;3.83;1.70;;;;;;;;;;5044809;28;20219;-78
2022/07/16 09:21:11;;;;;;;4.00;1.80;;;;;;;;;;5032100;28;20222;-77
2022/07/16 09:24:29;;;;;;;3.38;1.33;;;;;;;;;;5033377;28;20516;-77
2022/07/16 09:27:37;;;;;;;2.95;1.50;;;;;;;;;;5032546;28;20189;-80
2022/07/16 09:30:41;;;;;;;3.22;1.50;;;;;;;;;;5025233;28;20217;-78
2022/07/16 09:34:00;;;;;;;6.78;1.50;;;;;;;;;;5038399;28;20182;-78
2022/07/16 09:37:06;;;;;;;1.48;1.35;;;;;;;;;;5026499;28;20205;-77
2022/07/16 09:40:12;;;;;;;4.35;1.52;;;;;;;;;;5038074;28;20184;-77
2022/07/16 09:43:19;;;;;;;4.60;1.60;;;;;;;;;;5061477;28;20173;-77
2022/07/16 09:46:23;;;;;;;4.25;1.30;;;;;;;;;;5049170;28;20200;-77
2022/07/16 09:49:29;;;;;;;2.30;1.27;;;;;;;;;;5059843;28;20188;-77
2022/07/16 09:52:34;;;;;;;3.50;1.52;;;;;;;;;;5048171;28;20220;-77
2022/07/16 09:55:59;;;;;;;3.30;1.55;;;;;;;;;;5059006;28;20517;-77
2022/07/16 09:59:05;;;;;;;2.38;1.40;;;;;;;;;;5046709;28;20189;-78
2022/07/16 10:02:13;;;;;;;5.90;1.60;;;;;;;;;;5058668;28;20216;-78
2022/07/16 10:05:17;;;;;;;3.75;1.48;;;;;;;;;;5047413;28;20189;-78
2022/07/16 10:08:23;;;;;;;3.53;1.30;;;;;;;;;;5047923;28;20181;-78
2022/07/16 10:11:27;;;;;;;2.65;1.50;;;;;;;;;;5058441;28;20212;-78
2022/07/16 10:14:35;;;;;;;6.93;1.80;;;;;;;;;;5059469;28;20181;-78
2022/07/16 10:17:40;;;;;;;1.85;1.30;;;;;;;;;;5053109;28;20683;-78
2022/07/16 10:20:59;;;;;;;2.10;1.20;;;;;;;;;;5034042;28;20220;-78
2022/07/16 10:24:07;;;;;;;6.22;1.58;;;;;;;;;;5057168;28;20177;-78
2022/07/16 10:27:19;;;;;;;2.83;1.40;;;;;;;;;;5043591;28;20188;-77
2022/07/16 10:30:31;;;;;;;3.58;1.30;;;;;;;;;;5044871;28;20188;-78
2022/07/16 10:33:35;;;;;;;3.70;1.70;;;;;;;;;;5044597;28;20180;-78
2022/07/16 10:36:50;;;;;;;2.65;1.30;;;;;;;;;;5055820;28;20204;-77
2022/07/16 10:40:06;;;;;;;3.60;1.27;;;;;;;;;;5043448;28;20192;-77
2022/07/16 10:43:21;;;;;;;1.45;1.20;;;;;;;;;;5042862;28;20678;-77
2022/07/16 10:46:26;;;;;;;2.85;1.40;;;;;;;;;;5055180;28;20556;-78
2022/07/16 10:49:31;;;;;;;6.10;1.58;;;;;;;;;;5032515;28;20196;-78
2022/07/16 10:52:44;;;;;;;7.05;1.67;;;;;;;;;;5041630;28;20220;-78
2022/07/16 10:56:12;;;;;;;3.85;1.58;;;;;;;;;;5024597;28;20541;-77
2022/07/16 10:59:19;;;;;;;2.03;1.20;;;;;;;;;;5041523;28;20189;-77
2022/07/16 11:02:37;;;;;;;2.30;1.40;;;;;;;;;;5054105;28;20212;-76
2022/07/16 11:05:42;;;;;;;2.97;1.38;;;;;;;;;;5031716;28;20180;-77
2022/07/16 11:08:51;;;;;;;3.80;1.38;;;;;;;;;;5030360;28;20180;-77
2022/07/16 11:12:04;;;;;;;4.50;1.45;;;;;;;;;;5030205;28;20216;-77
2022/07/16 11:15:11;;;;;;;4.53;1.40;;;;;;;;;;5030801;28;20188;-79
2022/07/16 11:18:15;;;;;;;1.50;1.08;;;;;;;;;;5025854;28;20205;-79
2022/07/16 11:21:20;;;;;;;1.40;1.10;;;;;;;;;;5037985;28;20217;-79
2022/07/16 11:24:26;;;;;;;5.63;1.58;;;;;;;;;;5054016;28;20523;-79
2022/07/16 11:27:31;;;;;;;2.33;1.25;;;;;;;;;;5048841;28;20181;-79
2022/07/16 11:30:35;;;;;;;2.40;1.52;;;;;;;;;;5032213;28;20216;-79
2022/07/16 11:33:42;;;;;;;3.30;1.25;;;;;;;;;;5036772;28;20651;-79
2022/07/16 11:36:50;;;;;;;1.15;1.05;;;;;;;;;;5038036;28;20192;-79
2022/07/16 11:39:59;;;;;;;3.08;1.30;;;;;;;;;;5051174;28;20635;-79
2022/07/16 11:43:04;;;;;;;2.83;1.40;;;;;;;;;;5030433;28;20189;-78
2022/07/16 11:46:20;;;;;;;3.25;1.35;;;;;;;;;;5035818;28;20181;-78
2022/07/16 11:49:39;;;;;;;4.40;1.50;;;;;;;;;;5044745;28;20624;-78
2022/07/16 11:52:46;;;;;;;2.00;1.40;;;;;;;;;;5033527;28;20197;-79
2022/07/16 11:55:51;;;;;;;2.28;1.30;;;;;;;;;;5042552;28;20181;-78
2022/07/16 11:58:56;;;;;;;2.83;1.50;;;;;;;;;;5011453;28;20213;-78
2022/07/16 12:02:07;;;;;;;3.38;1.40;;;;;;;;;;5051184;28;20592;-78
2022/07/16 12:05:11;;;;;;;3.97;1.42;;;;;;;;;;5041730;28;20877;-79
2022/07/16 12:08:15;;;;;;;3.60;1.20;;;;;;;;;;5037218;28;20185;-78
2022/07/16 12:11:20;;;;;;;1.75;1.33;;;;;;;;;;5031471;28;20216;-79
2022/07/16 12:14:51;;;;;;;3.33;1.40;;;;;;;;;;5038542;28;20200;-78
2022/07/16 12:18:09;;;;;;;3.55;1.65;;;;;;;;;;5051598;28;20287;-78
2022/07/16 12:21:24;;;;;;;2.45;1.48;;;;;;;;;;5054421;28;20208;-79
2022/07/16 12:24:28;;;;;;;3.05;1.30;;;;;;;;;;5036612;28;20541;-79
2022/07/16 12:27:53;;;;;;;2.20;1.23;;;;;;;;;;5038576;28;20189;-78
2022/07/16 12:31:05;;;;;;;3.92;1.27;;;;;;;;;;5033006;28;20224;-79
2022/07/16 12:34:09;;;;;;;3.42;1.50;;;;;;;;;;5043953;28;20201;-79
2022/07/16 12:37:14;;;;;;;3.92;1.45;;;;;;;;;;5037265;28;20196;-78
2022/07/16 12:40:19;;;;;;;2.90;1.30;;;;;;;;;;5061990;28;20204;-79
2022/07/16 12:43:23;;;;;;;10.75;1.70;;;;;;;;;;5036382;28;20188;-78
2022/07/16 12:46:35;;;;;;;1.88;1.20;;;;;;;;;;5046046;28;20192;-78
2022/07/16 12:49:40;;;;;;;2.35;0.95;;;;;;;;;;5048867;28;20173;-78
2022/07/16 12:52:44;;;;;;;1.85;1.08;;;;;;;;;;5048506;28;20189;-79
2022/07/16 12:59:12;;;;;;;2.53;1.13;;;;;;;;;;5051832;28;20542;-79
2022/07/16 13:02:16;;;;;;;1.55;1.00;;;;;;;;;;5062202;28;20224;-79
2022/07/16 13:05:23;;;;;;;3.13;1.10;;;;;;;;;;5053216;28;20188;-79
2022/07/16 13:08:27;;;;;;;3.35;1.23;;;;;;;;;;5029564;28;20193;-78
2022/07/16 13:11:35;;;;;;;3.10;1.15;;;;;;;;;;5019653;28;20225;-79
2022/07/16 13:14:39;;;;;;;2.60;1.38;;;;;;;;;;5018983;28;20553;-78
2022/07/16 13:17:43;;;;;;;2.42;1.20;;;;;;;;;;5018887;28;20205;-79
2022/07/16 13:20:48;;;;;;;2.28;1.40;;;;;;;;;;5030072;28;20216;-79
2022/07/16 13:23:54;;;;;;;2.30;1.00;;;;;;;;;;5031759;28;20189;-79
2022/07/16 13:26:58;;;;;;;3.28;1.20;;;;;;;;;;5051313;28;20643;-80
2022/07/16 13:30:02;;;;;;;3.28;1.20;;;;;;;;;;5063517;28;20176;-79
2022/07/16 13:33:06;;;;;;;3.70;1.10;;;;;;;;;;5051651;28;20200;-79
2022/07/16 13:36:11;;;;;;;4.00;1.40;;;;;;;;;;5060924;28;20196;-79
2022/07/16 13:39:16;;;;;;;2.17;1.33;;;;;;;;;;5040973;28;20216;-80
2022/07/16 13:42:20;;;;;;;2.95;1.20;;;;;;;;;;5043809;28;20224;-80
2022/07/16 13:45:24;;;;;;;2.85;1.15;;;;;;;;;;5041975;28;20184;-79
2022/07/16 13:48:28;;;;;;;3.72;1.00;;;;;;;;;;5051031;28;20173;-80
2022/07/16 13:51:32;;;;;;;3.72;1.23;;;;;;;;;;5049341;28;20224;-80
2022/07/16 13:54:37;;;;;;;3.22;1.25;;;;;;;;;;5048889;28;20632;-80
2022/07/16 14:01:04;;;;;;;1.55;0.93;;;;;;;;;;5038877;28;20566;-80
2022/07/16 14:04:09;;;;;;;3.33;1.13;;;;;;;;;;5049530;28;20184;-80
2022/07/16 14:07:14;;;;;;;3.55;1.33;;;;;;;;;;5049873;28;20185;-80
2022/07/16 14:10:18;;;;;;;4.07;1.10;;;;;;;;;;5018342;28;20522;-80
2022/07/16 14:13:23;;;;;;;1.55;0.82;;;;;;;;;;5033232;28;20184;-80
2022/07/16 14:16:27;;;;;;;1.65;1.00;;;;;;;;;;5032747;28;20188;-80
2022/07/16 14:19:33;;;;;;;1.55;0.90;;;;;;;;;;5039639;28;20212;-79
2022/07/16 14:22:38;;;;;;;3.00;0.98;;;;;;;;;;5051019;28;20216;-80
2022/07/16 14:25:43;;;;;;;4.80;1.10;;;;;;;;;;5051614;28;20180;-80
2022/07/16 14:28:47;;;;;;;5.05;1.20;;;;;;;;;;5050581;28;20173;-80
2022/07/16 14:31:51;;;;;;;3.22;0.93;;;;;;;;;;5040650;28;20220;-81
2022/07/16 14:34:55;;;;;;;1.48;0.90;;;;;;;;;;5033036;28;20200;-80
2022/07/16 14:38:00;;;;;;;4.60;1.35;;;;;;;;;;5039108;28;20180;-81
2022/07/16 14:41:04;;;;;;;1.58;0.85;;;;;;;;;;5045824;28;20215;-80
2022/07/16 14:44:08;;;;;;;1.55;0.90;;;;;;;;;;5031269;28;20200;-80
2022/07/16 14:47:13;;;;;;;3.47;1.27;;;;;;;;;;5047357;28;20205;-80
2022/07/16 14:50:42;;;;;;;6.47;1.10;;;;;;;;;;5035581;28;20200;-80
2022/07/16 14:53:47;;;;;;;3.70;1.15;;;;;;;;;;5055555;28;20208;-80
2022/07/16 14:56:51;;;;;;;1.77;0.90;;;;;;;;;;5051570;28;20188;-81
2022/07/16 14:59:55;;;;;;;4.25;1.20;;;;;;;;;;5043325;28;20204;-80
2022/07/16 15:02:59;;;;;;;2.70;1.30;;;;;;;;;;5022384;28;20193;-79
2022/07/16 15:06:03;;;;;;;3.75;1.05;;;;;;;;;;5032180;28;20189;-79
2022/07/16 15:09:07;;;;;;;1.83;0.98;;;;;;;;;;5011439;28;20194;-80
2022/07/16 15:12:11;;;;;;;3.45;0.93;;;;;;;;;;5011437;28;20569;-79
2022/07/16 15:15:16;;;;;;;1.73;1.10;;;;;;;;;;5046954;28;20185;-79
2022/07/16 15:18:20;;;;;;;2.67;0.82;;;;;;;;;;5054363;28;20212;-80
2022/07/16 15:21:24;;;;;;;4.40;1.00;;;;;;;;;;5052542;28;20225;-79
2022/07/16 15:24:29;;;;;;;4.95;1.17;;;;;;;;;;5043124;28;20181;-80
2022/07/16 15:27:33;;;;;;;1.83;0.82;;;;;;;;;;5030571;28;20177;-80
2022/07/16 15:30:38;;;;;;;2.33;1.00;;;;;;;;;;5050754;28;20683;-80
2022/07/16 15:33:42;;;;;;;4.32;1.10;;;;;;;;;;5042578;28;20206;-79
2022/07/16 15:36:46;;;;;;;1.67;1.05;;;;;;;;;;5039452;28;20193;-80
2022/07/16 15:39:51;;;;;;;3.10;0.90;;;;;;;;;;5043169;28;20212;-80
2022/07/16 15:42:55;;;;;;;3.53;0.90;;;;;;;;;;5044127;28;20181;-79
2022/07/16 15:45:59;;;;;;;3.25;1.05;;;;;;;;;;5018421;28;20189;-80
2022/07/16 15:49:03;;;;;;;1.52;0.98;;;;;;;;;;5033294;28;20184;-80
2022/07/16 15:52:08;;;;;;;3.33;1.00;;;;;;;;;;5035190;28;20713;-78
2022/07/16 15:55:12;;;;;;;1.67;0.80;;;;;;;;;;5030408;28;20200;-79
2022/07/16 15:58:16;;;;;;;1.45;1.08;;;;;;;;;;5028584;28;20180;-79
2022/07/16 16:01:20;;;;;;;1.77;0.90;;;;;;;;;;5028821;28;20223;-80
2022/07/16 16:04:24;;;;;;;2.25;1.10;;;;;;;;;;5027934;28;20182;-79
2022/07/16 16:07:29;;;;;;;2.42;1.00;;;;;;;;;;5038774;28;20182;-79
2022/07/16 16:10:33;;;;;;;3.78;1.05;;;;;;;;;;5026679;28;20172;-79
2022/07/16 16:13:38;;;;;;;2.85;1.20;;;;;;;;;;5032514;28;20186;-79
2022/07/16 16:16:42;;;;;;;3.33;0.90;;;;;;;;;;5041902;28;20538;-78
2022/07/16 16:19:46;;;;;;;2.97;1.15;;;;;;;;;;5013437;28;20207;-79
2022/07/16 16:22:51;;;;;;;2.50;1.25;;;;;;;;;;5033121;28;20188;-80
2022/07/16 16:25:56;;;;;;;2.85;1.10;;;;;;;;;;5023535;28;20188;-79
2022/07/16 16:29:01;;;;;;;2.65;1.13;;;;;;;;;;5011491;28;20184;-78
2022/07/16 16:32:06;;;;;;;3.50;1.00;;;;;;;;;;5027652;28;20220;-79
2022/07/16 16:35:11;;;;;;;2.17;1.17;;;;;;;;;;5040266;28;20188;-79
2022/07/16 16:38:15;;;;;;;2.25;1.10;;;;;;;;;;5038957;28;20193;-79
2022/07/16 16:41:19;;;;;;;5.28;1.30;;;;;;;;;;5027990;28;20205;-79
2022/07/16 16:44:23;;;;;;;2.30;1.35;;;;;;;;;;5025892;28;20662;-79
2022/07/16 16:47:27;;;;;;;1.48;1.17;;;;;;;;;;5039900;28;20202;-80
2022/07/16 16:50:31;;;;;;;1.83;1.20;;;;;;;;;;5038622;28;20179;-79
2022/07/16 16:53:35;;;;;;;3.37;1.30;;;;;;;;;;5032696;28;20198;-79
2022/07/16 16:56:40;;;;;;;3.03;1.37;;;;;;;;;;5027824;28;20624;-79
2022/07/16 16:59:45;;;;;;;2.53;1.30;;;;;;;;;;5037324;28;20209;-79
2022/07/16 17:02:49;;;;;;;2.43;1.10;;;;;;;;;;5037626;28;20195;-79
2022/07/16 17:05:53;;;;;;;2.23;1.17;;;;;;;;;;5035740;28;20187;-78
2022/07/16 17:08:59;;;;;;;4.47;1.57;;;;;;;;;;5033209;28;20193;-79
2022/07/16 17:12:03;;;;;;;4.13;1.20;;;;;;;;;;5023761;28;20221;-78
2022/07/16 17:15:08;;;;;;;3.90;1.20;;;;;;;;;;5012472;28;20197;-79
2022/07/16 17:18:13;;;;;;;4.50;1.40;;;;;;;;;;5043439;28;20187;-79
2022/07/16 17:21:17;;;;;;;1.37;1.10;;;;;;;;;;5042801;28;20218;-79
2022/07/16 17:24:21;;;;;;;3.00;1.47;;;;;;;;;;5024221;28;20182;-79
2022/07/16 17:27:25;;;;;;;3.40;1.20;;;;;;;;;;5036177;28;20185;-80
2022/07/16 17:30:30;;;;;;;5.43;1.60;;;;;;;;;;5041950;28;20182;-78
2022/07/16 17:33:35;;;;;;;3.57;1.30;;;;;;;;;;5024803;28;20186;-78
2022/07/16 17:36:39;;;;;;;6.30;1.30;;;;;;;;;;5035521;28;20187;-79
2022/07/16 17:39:44;;;;;;;2.13;1.30;;;;;;;;;;5036054;28;20548;-78
2022/07/16 17:42:48;;;;;;;2.10;1.30;;;;;;;;;;5027063;28;20192;-79
2022/07/16 17:45:52;;;;;;;4.73;1.17;;;;;;;;;;5023981;28;20189;-78
2022/07/16 17:52:27;;;;;;;2.73;1.67;;;;;;;;;;5024972;28;20703;-78
2022/07/16 17:55:33;;;;;;;2.63;1.50;;;;;;;;;;5037433;28;20193;-79
2022/07/16 17:58:37;;;;;;;1.90;1.30;;;;;;;;;;5036907;28;20190;-79
2022/07/16 18:01:42;;;;;;;3.20;1.33;;;;;;;;;;5037176;28;20206;-79
2022/07/16 18:04:46;;;;;;;3.33;1.60;;;;;;;;;;5037965;28;20195;-79
2022/07/16 18:07:50;;;;;;;4.73;1.30;;;;;;;;;;5038404;28;20537;-80
2022/07/16 18:10:54;;;;;;;3.13;1.40;;;;;;;;;;4996103;28;20716;-79
2022/07/16 18:13:58;;;;;;;2.87;1.60;;;;;;;;;;5017452;28;20183;-79
2022/07/16 18:17:02;;;;;;;3.23;1.50;;;;;;;;;;5015738;28;20189;-79
2022/07/16 18:20:07;;;;;;;3.50;1.33;;;;;;;;;;5024382;28;20572;-78
2022/07/16 18:23:11;;;;;;;3.40;1.20;;;;;;;;;;5016085;28;20553;-79
2022/07/16 18:26:16;;;;;;;3.47;1.77;;;;;;;;;;5007697;28;20683;-78
2022/07/16 18:29:20;;;;;;;2.93;1.10;;;;;;;;;;5023955;28;20660;-78
2022/07/16 18:32:24;;;;;;;2.37;1.10;;;;;;;;;;5035476;28;20212;-79
2022/07/16 18:35:28;;;;;;;2.00;1.50;;;;;;;;;;5046373;28;20192;-78
2022/07/16 18:38:32;;;;;;;2.10;1.70;;;;;;;;;;5035496;28;20189;-78
2022/07/16 18:41:36;;;;;;;3.80;1.57;;;;;;;;;;5036344;28;20544;-79
2022/07/16 18:44:41;;;;;;;1.83;1.30;;;;;;;;;;5036070;28;20197;-79
2022/07/16 18:47:45;;;;;;;3.57;1.50;;;;;;;;;;5036462;28;20198;-79
2022/07/16 18:50:49;;;;;;;2.00;1.50;;;;;;;;;;5024377;28;20220;-80